sensor_id;sensor_type;location;lat;lon;timestamp;temperature;humidity
18291;DHT22;9271;48.590;8.866;2024-01-16T00:01:21;1.10;99.90
18291;DHT22;9271;48.590;8.866;2024-01-16T00:03:49;1.20;99.90
18291;DHT22;9271;48.590;8.866;2024-01-16T00:06:16;1.40;99.80
18291;DHT22;9271;48.590;8.866;2024-01-16T00:08:43;1.50;99.50
18291;DHT22;9271;48.590;8.866;2024-01-16T00:11:09;1.60;99.60
18291;DHT22;9271;48.590;8.866;2024-01-16T00:13:36;1.50;99.90
18291;DHT22;9271;48.590;8.866;2024-01-16T00:16:03;1.60;99.90
18291;DHT22;9271;48.590;8.866;2024-01-16T00:18:30;1.60;99.90
18291;DHT22;9271;48.590;8.866;2024-01-16T00:21:00;1.60;99.90
18291;DHT22;9271;48.590;8.866;2024-01-16T00:23:27;1.70;99.90
18291;DHT22;9271;48.590;8.866;2024-01-16T00:25:54;1.80;99.30
18291;DHT22;9271;48.590;8.866;2024-01-16T00:28:20;1.50;99.20
18291;DHT22;9271;48.590;8.866;2024-01-16T00:30:47;1.00;99.80
18291;DHT22;9271;48.590;8.866;2024-01-16T00:33:14;1.00;99.90
18291;DHT22;9271;48.590;8.866;2024-01-16T00:35:41;1.10;99.90
18291;DHT22;9271;48.590;8.866;2024-01-16T00:38:09;1.40;99.90
18291;DHT22;9271;48.590;8.866;2024-01-16T00:40:36;1.40;99.70
18291;DHT22;9271;48.590;8.866;2024-01-16T00:43:03;1.40;99.60
18291;DHT22;9271;48.590;8.866;2024-01-16T00:45:29;1.10;99.60
18291;DHT22;9271;48.590;8.866;2024-01-16T00:47:56;0.90;99.80
18291;DHT22;9271;48.590;8.866;2024-01-16T00:50:23;0.60;99.90
18291;DHT22;9271;48.590;8.866;2024-01-16T00:52:50;0.70;99.90
18291;DHT22;9271;48.590;8.866;2024-01-16T00:55:18;0.90;99.90
18291;DHT22;9271;48.590;8.866;2024-01-16T00:57:45;1.30;99.80
18291;DHT22;9271;48.590;8.866;2024-01-16T01:00:12;1.40;99.60
18291;DHT22;9271;48.590;8.866;2024-01-16T01:02:39;1.50;99.90
18291;DHT22;9271;48.590;8.866;2024-01-16T01:05:07;1.50;99.00
18291;DHT22;9271;48.590;8.866;2024-01-16T01:07:33;1.20;98.80
18291;DHT22;9271;48.590;8.866;2024-01-16T01:10:00;0.60;99.80
18291;DHT22;9271;48.590;8.866;2024-01-16T01:12:28;0.30;99.90
18291;DHT22;9271;48.590;8.866;2024-01-16T01:14:55;0.30;99.90
18291;DHT22;9271;48.590;8.866;2024-01-16T01:17:22;0.90;99.90
18291;DHT22;9271;48.590;8.866;2024-01-16T01:19:50;1.20;99.80
18291;DHT22;9271;48.590;8.866;2024-01-16T01:22:16;1.20;99.40
18291;DHT22;9271;48.590;8.866;2024-01-16T01:24:43;0.90;99.60
18291;DHT22;9271;48.590;8.866;2024-01-16T01:27:10;0.90;99.60
18291;DHT22;9271;48.590;8.866;2024-01-16T01:29:38;0.80;99.80
18291;DHT22;9271;48.590;8.866;2024-01-16T01:32:04;0.90;99.40
18291;DHT22;9271;48.590;8.866;2024-01-16T01:34:31;1.00;99.20
18291;DHT22;9271;48.590;8.866;2024-01-16T01:36:58;1.10;98.90
18291;DHT22;9271;48.590;8.866;2024-01-16T01:39:24;0.90;99.10
18291;DHT22;9271;48.590;8.866;2024-01-16T01:41:51;1.10;99.40
18291;DHT22;9271;48.590;8.866;2024-01-16T01:44:17;1.30;99.30
18291;DHT22;9271;48.590;8.866;2024-01-16T01:46:45;1.30;98.60
18291;DHT22;9271;48.590;8.866;2024-01-16T01:49:13;1.20;98.80
18291;DHT22;9271;48.590;8.866;2024-01-16T01:51:40;1.40;98.60
18291;DHT22;9271;48.590;8.866;2024-01-16T01:54:08;1.20;98.60
18291;DHT22;9271;48.590;8.866;2024-01-16T01:56:37;1.00;99.00
18291;DHT22;9271;48.590;8.866;2024-01-16T01:59:03;0.80;99.40
18291;DHT22;9271;48.590;8.866;2024-01-16T02:01:32;0.70;99.40
18291;DHT22;9271;48.590;8.866;2024-01-16T02:04:02;0.70;99.60
18291;DHT22;9271;48.590;8.866;2024-01-16T02:06:28;0.60;99.30
18291;DHT22;9271;48.590;8.866;2024-01-16T02:08:55;0.50;99.40
18291;DHT22;9271;48.590;8.866;2024-01-16T02:11:22;0.30;99.90
18291;DHT22;9271;48.590;8.866;2024-01-16T02:13:48;0.30;99.90
18291;DHT22;9271;48.590;8.866;2024-01-16T02:16:19;0.20;99.90
18291;DHT22;9271;48.590;8.866;2024-01-16T02:18:46;0.50;99.90
18291;DHT22;9271;48.590;8.866;2024-01-16T02:21:17;0.30;99.90
18291;DHT22;9271;48.590;8.866;2024-01-16T02:23:46;0.30;99.90
18291;DHT22;9271;48.590;8.866;2024-01-16T02:26:14;0.30;99.90
18291;DHT22;9271;48.590;8.866;2024-01-16T02:28:41;0.10;99.90
18291;DHT22;9271;48.590;8.866;2024-01-16T02:31:08;0.00;99.90
18291;DHT22;9271;48.590;8.866;2024-01-16T02:33:34;0.00;99.90
18291;DHT22;9271;48.590;8.866;2024-01-16T02:36:01;0.00;99.90
18291;DHT22;9271;48.590;8.866;2024-01-16T02:38:28;-0.10;99.90
18291;DHT22;9271;48.590;8.866;2024-01-16T02:40:56;-0.20;99.90
18291;DHT22;9271;48.590;8.866;2024-01-16T02:43:21;-0.20;99.90
18291;DHT22;9271;48.590;8.866;2024-01-16T02:45:48;-0.50;99.90
18291;DHT22;9271;48.590;8.866;2024-01-16T02:48:15;-0.70;99.90
18291;DHT22;9271;48.590;8.866;2024-01-16T02:50:42;-0.60;99.90
18291;DHT22;9271;48.590;8.866;2024-01-16T02:53:08;-0.60;99.90
18291;DHT22;9271;48.590;8.866;2024-01-16T02:55:35;-0.70;99.90
18291;DHT22;9271;48.590;8.866;2024-01-16T02:58:03;-1.10;99.90
18291;DHT22;9271;48.590;8.866;2024-01-16T03:00:30;-1.10;99.90
18291;DHT22;9271;48.590;8.866;2024-01-16T03:02:57;-1.20;99.90
18291;DHT22;9271;48.590;8.866;2024-01-16T03:05:23;-1.90;99.90
18291;DHT22;9271;48.590;8.866;2024-01-16T03:07:50;-2.10;99.90
18291;DHT22;9271;48.590;8.866;2024-01-16T03:10:17;-2.10;99.90
18291;DHT22;9271;48.590;8.866;2024-01-16T03:12:44;-1.80;99.90
18291;DHT22;9271;48.590;8.866;2024-01-16T03:15:12;-1.60;99.90
18291;DHT22;9271;48.590;8.866;2024-01-16T03:17:38;-1.50;99.90
18291;DHT22;9271;48.590;8.866;2024-01-16T03:20:06;-1.50;99.90
18291;DHT22;9271;48.590;8.866;2024-01-16T03:22:34;-1.60;99.90
18291;DHT22;9271;48.590;8.866;2024-01-16T03:25:00;-1.70;99.90
18291;DHT22;9271;48.590;8.866;2024-01-16T03:27:27;-1.60;99.90
18291;DHT22;9271;48.590;8.866;2024-01-16T03:29:54;-1.80;99.90
18291;DHT22;9271;48.590;8.866;2024-01-16T03:32:22;-1.70;99.90
18291;DHT22;9271;48.590;8.866;2024-01-16T03:34:49;-1.60;99.90
18291;DHT22;9271;48.590;8.866;2024-01-16T03:37:16;-1.50;99.90
18291;DHT22;9271;48.590;8.866;2024-01-16T03:39:42;-1.70;99.90
18291;DHT22;9271;48.590;8.866;2024-01-16T03:42:10;-1.70;99.90
18291;DHT22;9271;48.590;8.866;2024-01-16T03:44:38;-1.70;99.90
18291;DHT22;9271;48.590;8.866;2024-01-16T03:47:05;-1.70;99.90
18291;DHT22;9271;48.590;8.866;2024-01-16T03:49:33;-1.70;99.90
18291;DHT22;9271;48.590;8.866;2024-01-16T03:52:00;-1.90;99.90
18291;DHT22;9271;48.590;8.866;2024-01-16T03:54:27;-2.00;99.90
18291;DHT22;9271;48.590;8.866;2024-01-16T03:56:54;-2.10;99.90
18291;DHT22;9271;48.590;8.866;2024-01-16T03:59:21;-2.10;99.90
18291;DHT22;9271;48.590;8.866;2024-01-16T04:01:48;-2.00;99.90
18291;DHT22;9271;48.590;8.866;2024-01-16T04:04:15;-2.10;99.90
18291;DHT22;9271;48.590;8.866;2024-01-16T04:06:43;-2.20;99.90
18291;DHT22;9271;48.590;8.866;2024-01-16T04:09:10;-2.40;99.90
18291;DHT22;9271;48.590;8.866;2024-01-16T04:11:39;-3.20;99.90
18291;DHT22;9271;48.590;8.866;2024-01-16T04:14:05;-3.20;99.90
18291;DHT22;9271;48.590;8.866;2024-01-16T04:16:32;-3.50;99.90
18291;DHT22;9271;48.590;8.866;2024-01-16T04:18:58;-3.30;99.90
18291;DHT22;9271;48.590;8.866;2024-01-16T04:21:25;-3.20;99.90
18291;DHT22;9271;48.590;8.866;2024-01-16T04:23:53;-3.20;99.90
18291;DHT22;9271;48.590;8.866;2024-01-16T04:26:20;-3.10;99.90
18291;DHT22;9271;48.590;8.866;2024-01-16T04:28:47;-2.90;99.90
18291;DHT22;9271;48.590;8.866;2024-01-16T04:31:13;-3.00;99.90
18291;DHT22;9271;48.590;8.866;2024-01-16T04:33:42;-3.10;99.90
18291;DHT22;9271;48.590;8.866;2024-01-16T04:36:08;-3.20;99.90
18291;DHT22;9271;48.590;8.866;2024-01-16T04:38:35;-3.30;99.90
18291;DHT22;9271;48.590;8.866;2024-01-16T04:41:03;-3.30;99.90
18291;DHT22;9271;48.590;8.866;2024-01-16T04:43:30;-3.30;99.90
18291;DHT22;9271;48.590;8.866;2024-01-16T04:45:57;-3.40;99.90
18291;DHT22;9271;48.590;8.866;2024-01-16T04:48:23;-3.40;99.90
18291;DHT22;9271;48.590;8.866;2024-01-16T04:50:50;-3.40;99.90
18291;DHT22;9271;48.590;8.866;2024-01-16T04:53:17;-3.70;99.90
18291;DHT22;9271;48.590;8.866;2024-01-16T04:55:44;-3.90;99.90
18291;DHT22;9271;48.590;8.866;2024-01-16T04:58:12;-4.00;99.90
18291;DHT22;9271;48.590;8.866;2024-01-16T05:00:39;-4.10;99.90
18291;DHT22;9271;48.590;8.866;2024-01-16T05:03:05;-4.10;99.90
18291;DHT22;9271;48.590;8.866;2024-01-16T05:05:32;-3.90;99.90
18291;DHT22;9271;48.590;8.866;2024-01-16T05:08:00;-3.80;99.90
18291;DHT22;9271;48.590;8.866;2024-01-16T05:10:27;-3.80;99.90
18291;DHT22;9271;48.590;8.866;2024-01-16T05:12:54;-3.70;99.90
18291;DHT22;9271;48.590;8.866;2024-01-16T05:15:22;-3.60;99.90
18291;DHT22;9271;48.590;8.866;2024-01-16T05:17:48;-3.60;99.90
18291;DHT22;9271;48.590;8.866;2024-01-16T05:20:15;-3.50;99.90
18291;DHT22;9271;48.590;8.866;2024-01-16T05:22:41;-3.60;99.90
18291;DHT22;9271;48.590;8.866;2024-01-16T05:25:08;-3.70;99.90
18291;DHT22;9271;48.590;8.866;2024-01-16T05:27:35;-3.60;99.90
18291;DHT22;9271;48.590;8.866;2024-01-16T05:30:02;-3.60;99.90
18291;DHT22;9271;48.590;8.866;2024-01-16T05:32:30;-3.50;99.90
18291;DHT22;9271;48.590;8.866;2024-01-16T05:34:57;-3.40;99.90
18291;DHT22;9271;48.590;8.866;2024-01-16T05:37:24;-3.40;99.90
18291;DHT22;9271;48.590;8.866;2024-01-16T05:39:50;-3.50;99.90
18291;DHT22;9271;48.590;8.866;2024-01-16T05:42:17;-3.70;99.90
18291;DHT22;9271;48.590;8.866;2024-01-16T05:44:43;-3.80;99.90
18291;DHT22;9271;48.590;8.866;2024-01-16T05:47:10;-3.90;99.90
18291;DHT22;9271;48.590;8.866;2024-01-16T05:49:38;-3.90;99.90
18291;DHT22;9271;48.590;8.866;2024-01-16T05:52:07;-3.80;99.90
18291;DHT22;9271;48.590;8.866;2024-01-16T05:54:34;-3.90;99.90
18291;DHT22;9271;48.590;8.866;2024-01-16T05:57:00;-3.80;99.90
18291;DHT22;9271;48.590;8.866;2024-01-16T05:59:28;-4.20;99.90
18291;DHT22;9271;48.590;8.866;2024-01-16T06:01:54;-4.20;99.90
18291;DHT22;9271;48.590;8.866;2024-01-16T06:04:21;-4.30;99.90
18291;DHT22;9271;48.590;8.866;2024-01-16T06:06:49;-4.40;99.90
18291;DHT22;9271;48.590;8.866;2024-01-16T06:09:16;-4.40;99.90
18291;DHT22;9271;48.590;8.866;2024-01-16T06:11:43;-4.30;99.90
18291;DHT22;9271;48.590;8.866;2024-01-16T06:14:10;-4.10;99.90
18291;DHT22;9271;48.590;8.866;2024-01-16T06:16:38;-3.90;99.90
18291;DHT22;9271;48.590;8.866;2024-01-16T06:19:04;-3.80;99.90
18291;DHT22;9271;48.590;8.866;2024-01-16T06:21:31;-3.80;99.90
18291;DHT22;9271;48.590;8.866;2024-01-16T06:23:59;-3.80;99.90
18291;DHT22;9271;48.590;8.866;2024-01-16T06:26:26;-3.70;99.90
18291;DHT22;9271;48.590;8.866;2024-01-16T06:28:52;-3.70;99.90
18291;DHT22;9271;48.590;8.866;2024-01-16T06:31:19;-3.70;99.90
18291;DHT22;9271;48.590;8.866;2024-01-16T06:33:45;-3.80;99.90
18291;DHT22;9271;48.590;8.866;2024-01-16T06:36:12;-3.70;99.90
18291;DHT22;9271;48.590;8.866;2024-01-16T06:38:39;-3.60;99.90
18291;DHT22;9271;48.590;8.866;2024-01-16T06:41:07;-3.70;99.90
18291;DHT22;9271;48.590;8.866;2024-01-16T06:43:34;-4.10;99.90
18291;DHT22;9271;48.590;8.866;2024-01-16T06:46:01;-4.30;99.90
18291;DHT22;9271;48.590;8.866;2024-01-16T06:48:28;-4.40;99.90
18291;DHT22;9271;48.590;8.866;2024-01-16T06:50:54;-4.10;99.90
18291;DHT22;9271;48.590;8.866;2024-01-16T06:53:21;-4.20;99.90
18291;DHT22;9271;48.590;8.866;2024-01-16T06:55:48;-3.80;99.90
18291;DHT22;9271;48.590;8.866;2024-01-16T06:58:16;-3.70;99.90
18291;DHT22;9271;48.590;8.866;2024-01-16T07:00:42;-3.50;99.90
18291;DHT22;9271;48.590;8.866;2024-01-16T07:03:10;-3.20;99.90
18291;DHT22;9271;48.590;8.866;2024-01-16T07:05:36;-3.10;99.90
18291;DHT22;9271;48.590;8.866;2024-01-16T07:08:03;-3.00;99.90
18291;DHT22;9271;48.590;8.866;2024-01-16T07:10:30;-2.90;99.90
18291;DHT22;9271;48.590;8.866;2024-01-16T07:12:57;-2.90;99.90
18291;DHT22;9271;48.590;8.866;2024-01-16T07:15:25;-2.80;99.90
18291;DHT22;9271;48.590;8.866;2024-01-16T07:17:51;-2.80;99.90
18291;DHT22;9271;48.590;8.866;2024-01-16T07:20:18;-2.80;99.90
18291;DHT22;9271;48.590;8.866;2024-01-16T07:22:45;-3.10;99.90
18291;DHT22;9271;48.590;8.866;2024-01-16T07:25:12;-3.10;99.90
18291;DHT22;9271;48.590;8.866;2024-01-16T07:27:39;-3.10;99.90
18291;DHT22;9271;48.590;8.866;2024-01-16T07:30:08;-3.00;99.90
18291;DHT22;9271;48.590;8.866;2024-01-16T07:32:36;-2.80;99.90
18291;DHT22;9271;48.590;8.866;2024-01-16T07:35:03;-3.00;99.90
18291;DHT22;9271;48.590;8.866;2024-01-16T07:37:30;-2.80;99.90
18291;DHT22;9271;48.590;8.866;2024-01-16T07:39:58;-2.50;99.90
18291;DHT22;9271;48.590;8.866;2024-01-16T07:42:24;-2.60;99.90
18291;DHT22;9271;48.590;8.866;2024-01-16T07:44:52;-2.50;99.90
18291;DHT22;9271;48.590;8.866;2024-01-16T07:47:20;-2.30;99.90
18291;DHT22;9271;48.590;8.866;2024-01-16T07:49:48;-2.20;99.70
18291;DHT22;9271;48.590;8.866;2024-01-16T07:52:15;-2.10;99.90
18291;DHT22;9271;48.590;8.866;2024-01-16T07:54:42;-1.90;99.80
18291;DHT22;9271;48.590;8.866;2024-01-16T07:57:08;-1.80;99.20
18291;DHT22;9271;48.590;8.866;2024-01-16T07:59:35;-1.70;99.90
18291;DHT22;9271;48.590;8.866;2024-01-16T08:02:02;-1.70;99.60
18291;DHT22;9271;48.590;8.866;2024-01-16T08:04:29;-1.60;99.90
18291;DHT22;9271;48.590;8.866;2024-01-16T08:06:57;-1.20;99.80
18291;DHT22;9271;48.590;8.866;2024-01-16T08:09:23;-1.00;99.40
18291;DHT22;9271;48.590;8.866;2024-01-16T08:11:50;-0.90;98.80
18291;DHT22;9271;48.590;8.866;2024-01-16T08:14:17;-0.70;98.20
18291;DHT22;9271;48.590;8.866;2024-01-16T08:16:43;-0.30;97.50
18291;DHT22;9271;48.590;8.866;2024-01-16T08:19:10;0.00;96.50
18291;DHT22;9271;48.590;8.866;2024-01-16T08:21:37;0.10;95.80
18291;DHT22;9271;48.590;8.866;2024-01-16T08:24:05;0.30;95.50
18291;DHT22;9271;48.590;8.866;2024-01-16T08:26:31;0.70;95.00
18291;DHT22;9271;48.590;8.866;2024-01-16T08:28:58;1.00;94.40
18291;DHT22;9271;48.590;8.866;2024-01-16T08:31:25;1.30;94.10
18291;DHT22;9271;48.590;8.866;2024-01-16T08:33:52;1.50;93.60
18291;DHT22;9271;48.590;8.866;2024-01-16T08:36:21;1.80;92.70
18291;DHT22;9271;48.590;8.866;2024-01-16T08:38:48;2.40;92.00
18291;DHT22;9271;48.590;8.866;2024-01-16T08:41:16;3.20;90.70
18291;DHT22;9271;48.590;8.866;2024-01-16T08:43:43;4.20;88.60
18291;DHT22;9271;48.590;8.866;2024-01-16T08:46:09;5.10;84.30
18291;DHT22;9271;48.590;8.866;2024-01-16T08:48:36;5.40;80.40
18291;DHT22;9271;48.590;8.866;2024-01-16T08:51:08;5.60;77.80
18291;DHT22;9271;48.590;8.866;2024-01-16T08:53:37;5.20;76.40
18291;DHT22;9271;48.590;8.866;2024-01-16T08:56:04;4.50;78.20
18291;DHT22;9271;48.590;8.866;2024-01-16T08:58:33;4.30;78.30
18291;DHT22;9271;48.590;8.866;2024-01-16T09:01:02;4.30;79.00
18291;DHT22;9271;48.590;8.866;2024-01-16T09:03:28;4.90;78.00
18291;DHT22;9271;48.590;8.866;2024-01-16T09:05:55;5.60;76.40
18291;DHT22;9271;48.590;8.866;2024-01-16T09:08:21;6.50;73.80
18291;DHT22;9271;48.590;8.866;2024-01-16T09:10:48;8.80;70.40
18291;DHT22;9271;48.590;8.866;2024-01-16T09:13:16;10.20;59.70
18291;DHT22;9271;48.590;8.866;2024-01-16T09:15:44;11.30;54.20
18291;DHT22;9271;48.590;8.866;2024-01-16T09:18:12;11.40;52.70
18291;DHT22;9271;48.590;8.866;2024-01-16T09:20:39;11.20;50.80
18291;DHT22;9271;48.590;8.866;2024-01-16T09:23:05;11.70;50.60
18291;DHT22;9271;48.590;8.866;2024-01-16T09:25:32;12.10;47.70
18291;DHT22;9271;48.590;8.866;2024-01-16T09:27:59;12.30;47.40
18291;DHT22;9271;48.590;8.866;2024-01-16T09:30:25;12.70;46.70
18291;DHT22;9271;48.590;8.866;2024-01-16T09:32:54;12.50;45.50
18291;DHT22;9271;48.590;8.866;2024-01-16T09:35:20;11.80;44.80
18291;DHT22;9271;48.590;8.866;2024-01-16T09:37:47;11.10;46.60
18291;DHT22;9271;48.590;8.866;2024-01-16T09:40:14;12.00;46.10
18291;DHT22;9271;48.590;8.866;2024-01-16T09:42:41;12.20;45.00
18291;DHT22;9271;48.590;8.866;2024-01-16T09:45:09;11.00;45.10
18291;DHT22;9271;48.590;8.866;2024-01-16T09:47:37;9.70;47.50
18291;DHT22;9271;48.590;8.866;2024-01-16T09:50:06;8.80;48.90
18291;DHT22;9271;48.590;8.866;2024-01-16T09:52:33;7.60;51.20
18291;DHT22;9271;48.590;8.866;2024-01-16T09:55:00;6.70;53.10
18291;DHT22;9271;48.590;8.866;2024-01-16T09:57:27;6.00;56.00
18291;DHT22;9271;48.590;8.866;2024-01-16T09:59:55;6.00;56.10
18291;DHT22;9271;48.590;8.866;2024-01-16T10:02:23;5.80;57.00
18291;DHT22;9271;48.590;8.866;2024-01-16T10:04:50;5.80;56.80
18291;DHT22;9271;48.590;8.866;2024-01-16T10:07:19;5.20;57.20
18291;DHT22;9271;48.590;8.866;2024-01-16T10:09:51;5.30;58.20
18291;DHT22;9271;48.590;8.866;2024-01-16T10:12:17;5.70;57.60
18291;DHT22;9271;48.590;8.866;2024-01-16T10:14:44;5.90;57.70
18291;DHT22;9271;48.590;8.866;2024-01-16T10:17:12;5.80;58.00
18291;DHT22;9271;48.590;8.866;2024-01-16T10:19:48;5.90;57.60
18291;DHT22;9271;48.590;8.866;2024-01-16T10:22:21;6.10;57.50
18291;DHT22;9271;48.590;8.866;2024-01-16T10:24:50;6.20;57.10
18291;DHT22;9271;48.590;8.866;2024-01-16T10:27:16;6.40;57.00
18291;DHT22;9271;48.590;8.866;2024-01-16T10:29:55;6.70;57.20
18291;DHT22;9271;48.590;8.866;2024-01-16T10:32:29;7.00;56.40
18291;DHT22;9271;48.590;8.866;2024-01-16T10:35:06;8.80;54.20
18291;DHT22;9271;48.590;8.866;2024-01-16T10:37:46;10.90;50.20
18291;DHT22;9271;48.590;8.866;2024-01-16T10:40:17;13.60;47.20
18291;DHT22;9271;48.590;8.866;2024-01-16T10:42:44;17.10;42.40
18291;DHT22;9271;48.590;8.866;2024-01-16T10:45:17;18.30;35.60
18291;DHT22;9271;48.590;8.866;2024-01-16T10:47:44;19.20;33.90
18291;DHT22;9271;48.590;8.866;2024-01-16T10:50:11;19.00;32.90
18291;DHT22;9271;48.590;8.866;2024-01-16T10:52:43;19.50;29.60
18291;DHT22;9271;48.590;8.866;2024-01-16T10:55:14;20.10;30.20
18291;DHT22;9271;48.590;8.866;2024-01-16T10:57:43;22.10;28.60
18291;DHT22;9271;48.590;8.866;2024-01-16T11:00:13;22.30;27.30
18291;DHT22;9271;48.590;8.866;2024-01-16T11:02:43;24.30;25.50
18291;DHT22;9271;48.590;8.866;2024-01-16T11:05:12;23.90;24.70
18291;DHT22;9271;48.590;8.866;2024-01-16T11:07:40;23.40;25.30
18291;DHT22;9271;48.590;8.866;2024-01-16T11:10:09;23.60;24.10
18291;DHT22;9271;48.590;8.866;2024-01-16T11:12:39;23.80;24.00
18291;DHT22;9271;48.590;8.866;2024-01-16T11:15:08;24.50;23.50
18291;DHT22;9271;48.590;8.866;2024-01-16T11:17:35;25.10;23.50
18291;DHT22;9271;48.590;8.866;2024-01-16T11:20:04;25.20;22.80
18291;DHT22;9271;48.590;8.866;2024-01-16T11:22:36;24.30;23.60
18291;DHT22;9271;48.590;8.866;2024-01-16T11:25:08;24.00;23.10
18291;DHT22;9271;48.590;8.866;2024-01-16T11:27:35;24.40;22.20
18291;DHT22;9271;48.590;8.866;2024-01-16T11:30:05;24.40;22.60
18291;DHT22;9271;48.590;8.866;2024-01-16T11:32:33;24.90;22.20
18291;DHT22;9271;48.590;8.866;2024-01-16T11:35:01;25.50;22.60
18291;DHT22;9271;48.590;8.866;2024-01-16T11:37:28;25.60;21.90
18291;DHT22;9271;48.590;8.866;2024-01-16T11:40:22;26.10;21.90
18291;DHT22;9271;48.590;8.866;2024-01-16T11:42:50;26.20;21.40
18291;DHT22;9271;48.590;8.866;2024-01-16T11:45:50;25.50;21.30
18291;DHT22;9271;48.590;8.866;2024-01-16T11:48:17;24.70;21.20
18291;DHT22;9271;48.590;8.866;2024-01-16T11:50:46;24.60;22.20
18291;DHT22;9271;48.590;8.866;2024-01-16T11:53:32;24.80;22.10
18291;DHT22;9271;48.590;8.866;2024-01-16T11:56:15;25.30;21.40
18291;DHT22;9271;48.590;8.866;2024-01-16T11:58:49;26.10;21.70
18291;DHT22;9271;48.590;8.866;2024-01-16T12:01:21;26.20;20.90
18291;DHT22;9271;48.590;8.866;2024-01-16T12:04:01;27.10;20.00
18291;DHT22;9271;48.590;8.866;2024-01-16T12:06:28;26.50;19.70
18291;DHT22;9271;48.590;8.866;2024-01-16T12:09:10;25.50;20.70
18291;DHT22;9271;48.590;8.866;2024-01-16T12:11:37;24.90;20.90
18291;DHT22;9271;48.590;8.866;2024-01-16T12:14:04;24.30;22.20
18291;DHT22;9271;48.590;8.866;2024-01-16T12:16:32;24.50;22.20
18291;DHT22;9271;48.590;8.866;2024-01-16T12:19:04;24.10;22.30
18291;DHT22;9271;48.590;8.866;2024-01-16T12:21:33;24.90;22.10
18291;DHT22;9271;48.590;8.866;2024-01-16T12:24:00;25.10;21.20
18291;DHT22;9271;48.590;8.866;2024-01-16T12:26:26;24.60;21.20
18291;DHT22;9271;48.590;8.866;2024-01-16T12:28:53;24.70;21.60
18291;DHT22;9271;48.590;8.866;2024-01-16T12:31:20;25.30;20.70
18291;DHT22;9271;48.590;8.866;2024-01-16T12:33:48;25.40;21.80
18291;DHT22;9271;48.590;8.866;2024-01-16T12:36:15;25.90;20.70
18291;DHT22;9271;48.590;8.866;2024-01-16T12:38:42;26.80;19.50
18291;DHT22;9271;48.590;8.866;2024-01-16T12:41:10;27.20;19.30
18291;DHT22;9271;48.590;8.866;2024-01-16T12:43:37;27.00;19.00
18291;DHT22;9271;48.590;8.866;2024-01-16T12:46:04;26.20;19.10
18291;DHT22;9271;48.590;8.866;2024-01-16T12:48:31;25.90;19.70
18291;DHT22;9271;48.590;8.866;2024-01-16T12:51:00;25.40;19.40
18291;DHT22;9271;48.590;8.866;2024-01-16T12:53:28;25.10;19.70
18291;DHT22;9271;48.590;8.866;2024-01-16T12:55:57;25.70;19.10
18291;DHT22;9271;48.590;8.866;2024-01-16T12:58:25;26.80;19.00
18291;DHT22;9271;48.590;8.866;2024-01-16T13:00:53;27.00;18.00
18291;DHT22;9271;48.590;8.866;2024-01-16T13:03:22;26.40;17.60
18291;DHT22;9271;48.590;8.866;2024-01-16T13:05:55;27.00;17.40
18291;DHT22;9271;48.590;8.866;2024-01-16T13:08:23;27.40;17.60
18291;DHT22;9271;48.590;8.866;2024-01-16T13:11:02;27.50;18.00
18291;DHT22;9271;48.590;8.866;2024-01-16T13:13:29;27.90;18.20
18291;DHT22;9271;48.590;8.866;2024-01-16T13:15:57;28.80;16.90
18291;DHT22;9271;48.590;8.866;2024-01-16T13:18:24;29.40;16.90
18291;DHT22;9271;48.590;8.866;2024-01-16T13:20:52;28.80;16.20
18291;DHT22;9271;48.590;8.866;2024-01-16T13:23:20;28.70;16.50
18291;DHT22;9271;48.590;8.866;2024-01-16T13:25:49;28.40;16.40
18291;DHT22;9271;48.590;8.866;2024-01-16T13:28:17;26.90;17.30
18291;DHT22;9271;48.590;8.866;2024-01-16T13:30:45;26.30;16.90
18291;DHT22;9271;48.590;8.866;2024-01-16T13:33:12;24.80;17.40
18291;DHT22;9271;48.590;8.866;2024-01-16T13:35:40;25.50;18.10
18291;DHT22;9271;48.590;8.866;2024-01-16T13:38:07;26.50;17.40
18291;DHT22;9271;48.590;8.866;2024-01-16T13:40:35;25.90;18.10
18291;DHT22;9271;48.590;8.866;2024-01-16T13:43:04;25.80;17.90
18291;DHT22;9271;48.590;8.866;2024-01-16T13:45:32;25.80;17.20
18291;DHT22;9271;48.590;8.866;2024-01-16T13:47:58;26.00;18.10
18291;DHT22;9271;48.590;8.866;2024-01-16T13:50:26;26.40;17.60
18291;DHT22;9271;48.590;8.866;2024-01-16T13:52:53;27.10;17.20
18291;DHT22;9271;48.590;8.866;2024-01-16T13:55:20;27.10;16.80
18291;DHT22;9271;48.590;8.866;2024-01-16T13:57:47;26.80;17.30
18291;DHT22;9271;48.590;8.866;2024-01-16T14:00:15;26.50;17.50
18291;DHT22;9271;48.590;8.866;2024-01-16T14:02:44;24.70;18.30
18291;DHT22;9271;48.590;8.866;2024-01-16T14:05:12;23.30;18.30
18291;DHT22;9271;48.590;8.866;2024-01-16T14:07:41;22.60;19.90
18291;DHT22;9271;48.590;8.866;2024-01-16T14:10:08;22.50;20.10
18291;DHT22;9271;48.590;8.866;2024-01-16T14:12:38;23.10;19.90
18291;DHT22;9271;48.590;8.866;2024-01-16T14:15:06;23.10;19.10
18291;DHT22;9271;48.590;8.866;2024-01-16T14:17:42;23.30;20.00
18291;DHT22;9271;48.590;8.866;2024-01-16T14:20:10;23.20;19.10
18291;DHT22;9271;48.590;8.866;2024-01-16T14:22:37;23.30;19.90
18291;DHT22;9271;48.590;8.866;2024-01-16T14:25:06;22.80;19.60
18291;DHT22;9271;48.590;8.866;2024-01-16T14:27:37;22.50;20.60
18291;DHT22;9271;48.590;8.866;2024-01-16T14:30:05;22.00;20.20
18291;DHT22;9271;48.590;8.866;2024-01-16T14:32:32;22.20;20.80
18291;DHT22;9271;48.590;8.866;2024-01-16T14:35:00;21.90;20.30
18291;DHT22;9271;48.590;8.866;2024-01-16T14:37:29;21.20;21.00
18291;DHT22;9271;48.590;8.866;2024-01-16T14:39:56;20.70;21.80
18291;DHT22;9271;48.590;8.866;2024-01-16T14:42:26;20.00;21.10
18291;DHT22;9271;48.590;8.866;2024-01-16T14:44:53;18.40;22.20
18291;DHT22;9271;48.590;8.866;2024-01-16T14:47:19;15.80;23.70
18291;DHT22;9271;48.590;8.866;2024-01-16T14:49:46;12.50;26.10
18291;DHT22;9271;48.590;8.866;2024-01-16T14:52:15;10.20;29.60
18291;DHT22;9271;48.590;8.866;2024-01-16T14:54:43;9.00;32.50
18291;DHT22;9271;48.590;8.866;2024-01-16T14:57:10;7.50;36.00
18291;DHT22;9271;48.590;8.866;2024-01-16T14:59:37;6.60;39.00
18291;DHT22;9271;48.590;8.866;2024-01-16T15:02:04;6.00;40.70
18291;DHT22;9271;48.590;8.866;2024-01-16T15:04:38;5.60;42.20
18291;DHT22;9271;48.590;8.866;2024-01-16T15:07:04;5.30;42.60
18291;DHT22;9271;48.590;8.866;2024-01-16T15:09:32;4.90;43.90
18291;DHT22;9271;48.590;8.866;2024-01-16T15:12:00;4.60;44.80
18291;DHT22;9271;48.590;8.866;2024-01-16T15:14:26;4.50;45.20
18291;DHT22;9271;48.590;8.866;2024-01-16T15:16:53;4.30;46.60
18291;DHT22;9271;48.590;8.866;2024-01-16T15:19:20;4.00;47.00
18291;DHT22;9271;48.590;8.866;2024-01-16T15:21:46;3.90;48.30
18291;DHT22;9271;48.590;8.866;2024-01-16T15:24:13;3.70;50.90
18291;DHT22;9271;48.590;8.866;2024-01-16T15:26:46;3.70;50.30
18291;DHT22;9271;48.590;8.866;2024-01-16T15:29:12;3.50;52.60
18291;DHT22;9271;48.590;8.866;2024-01-16T15:31:39;3.30;53.30
18291;DHT22;9271;48.590;8.866;2024-01-16T15:34:06;3.20;54.80
18291;DHT22;9271;48.590;8.866;2024-01-16T15:36:33;3.10;56.70
18291;DHT22;9271;48.590;8.866;2024-01-16T15:38:59;3.00;56.70
18291;DHT22;9271;48.590;8.866;2024-01-16T15:41:27;2.90;57.30
18291;DHT22;9271;48.590;8.866;2024-01-16T15:43:55;2.80;57.70
18291;DHT22;9271;48.590;8.866;2024-01-16T15:46:22;2.40;61.80
18291;DHT22;9271;48.590;8.866;2024-01-16T15:48:49;2.00;66.00
18291;DHT22;9271;48.590;8.866;2024-01-16T15:51:16;1.90;67.80
18291;DHT22;9271;48.590;8.866;2024-01-16T15:53:43;1.90;68.40
18291;DHT22;9271;48.590;8.866;2024-01-16T15:56:10;1.70;70.90